Time;durP1;ratioP1;P1;durP2;ratioP2;P2;SDS_P1;SDS_P2;PMS_P1;PMS_P2;Temp;Humidity;BMP_temperature;BMP_pressure;BME280_temperature;BME280_humidity;BME280_pressure;Samples;Min_cycle;Max_cycle;Signal;HPM_P1;HPM_P2
2023/06/15 00:00:55;;;;;;;7.97;5.28;;;14.10;1.00;;;;;;5073865;28;20041;-60
2023/06/15 00:03:21;;;;;;;7.95;5.03;;;14.10;1.00;;;;;;5073761;28;20029;-59
2023/06/15 00:05:46;;;;;;;11.07;6.13;;;14.10;1.00;;;;;;5072649;28;20112;-59
2023/06/15 00:08:12;;;;;;;18.20;6.45;;;13.90;82.50;;;;;;5073811;28;20019;-59
2023/06/15 00:10:38;;;;;;;12.15;6.65;;;13.60;99.90;;;;;;5073771;28;20035;-59
2023/06/15 00:13:03;;;;;;;7.32;6.00;;;13.40;99.90;;;;;;5073593;28;20033;-59
2023/06/15 00:15:30;;;;;;;7.13;5.32;;;13.30;99.90;;;;;;5073772;28;20395;-59
2023/06/15 00:17:56;;;;;;;8.38;5.90;;;13.30;99.90;;;;;;5073687;28;20027;-59
2023/06/15 00:20:28;;;;;;;7.53;5.80;;;13.40;99.90;;;;;;5073435;28;20021;-59
2023/06/15 00:22:55;;;;;;;14.05;6.00;;;13.40;99.90;;;;;;5073785;28;20568;-59
2023/06/15 00:25:21;;;;;;;10.98;6.60;;;13.40;99.90;;;;;;5073390;28;20024;-59
2023/06/15 00:27:47;;;;;;;9.60;6.25;;;13.30;99.90;;;;;;5073238;28;20029;-59
2023/06/15 00:30:13;;;;;;;10.23;6.47;;;13.00;1.00;;;;;;5072009;28;20028;-59
2023/06/15 00:32:38;;;;;;;10.40;6.57;;;12.90;1.00;;;;;;5073421;28;20026;-59
2023/06/15 00:35:05;;;;;;;7.63;6.32;;;12.80;1.00;;;;;;5073233;28;20021;-59
2023/06/15 00:37:30;;;;;;;10.00;6.50;;;12.70;1.00;;;;;;5073499;28;20060;-59
2023/06/15 00:39:56;;;;;;;9.63;6.32;;;12.70;1.00;;;;;;5073221;28;20052;-59
2023/06/15 00:42:21;;;;;;;11.40;7.30;;;12.70;1.00;;;;;;5072999;28;20032;-59
2023/06/15 00:44:47;;;;;;;7.03;6.30;;;12.70;1.00;;;;;;5073163;28;20016;-59
2023/06/15 00:47:18;;;;;;;10.20;6.47;;;12.60;1.00;;;;;;5072568;28;20028;-59
2023/06/15 00:49:45;;;;;;;9.90;6.35;;;12.60;1.00;;;;;;5073106;28;20024;-59
2023/06/15 00:52:12;;;;;;;7.93;5.95;;;12.50;1.00;;;;;;5072854;28;20039;-59
2023/06/15 00:54:40;;;;;;;12.30;6.22;;;12.50;1.00;;;;;;5072874;28;20383;-59
2023/06/15 00:57:07;;;;;;;9.88;6.25;;;12.50;1.00;;;;;;5072635;28;20124;-59
2023/06/15 00:59:33;;;;;;;13.30;6.22;;;12.50;1.00;;;;;;5072901;28;20075;-59
2023/06/15 01:01:58;;;;;;;7.80;6.75;;;12.40;1.00;;;;;;5072794;28;20024;-59
2023/06/15 01:04:27;;;;;;;8.20;6.90;;;12.40;1.00;;;;;;5072589;28;20021;-59
2023/06/15 01:06:56;;;;;;;12.82;6.78;;;12.40;1.00;;;;;;5072732;28;20017;-59
2023/06/15 01:09:23;;;;;;;7.55;6.70;;;12.30;1.00;;;;;;5072464;28;20063;-59
2023/06/15 01:11:53;;;;;;;7.80;6.45;;;12.20;1.00;;;;;;5072540;28;20029;-59
2023/06/15 01:14:20;;;;;;;8.20;6.53;;;12.20;1.00;;;;;;5072592;28;20024;-59
2023/06/15 01:16:52;;;;;;;9.98;6.60;;;12.30;1.00;;;;;;5072414;28;20104;-59
2023/06/15 01:19:37;;;;;;;7.03;6.32;;;12.40;1.00;;;;;;5072289;28;20439;-58
2023/06/15 01:22:24;;;;;;;9.13;7.28;;;12.40;1.00;;;;;;5072387;28;20024;-59
2023/06/15 01:25:04;;;;;;;6.85;6.15;;;12.40;1.00;;;;;;5072481;28;20074;-59
2023/06/15 01:27:33;;;;;;;11.88;6.78;;;12.40;1.00;;;;;;5072331;28;20021;-59
2023/06/15 01:30:01;;;;;;;8.48;6.88;;;12.30;1.00;;;;;;5072268;28;20048;-59
2023/06/15 01:32:27;;;;;;;10.82;6.85;;;12.40;1.00;;;;;;5072370;28;20103;-59
2023/06/15 01:34:53;;;;;;;7.57;6.78;;;12.40;1.00;;;;;;5072336;28;20436;-59
2023/06/15 01:37:19;;;;;;;8.95;6.50;;;12.50;1.00;;;;;;5072067;28;20673;-58
2023/06/15 01:39:45;;;;;;;6.88;6.22;;;12.60;1.00;;;;;;5071961;28;20028;-59
2023/06/15 01:42:11;;;;;;;8.77;6.70;;;12.60;1.00;;;;;;5070594;28;20028;-59
2023/06/15 01:44:38;;;;;;;9.48;6.97;;;12.70;1.00;;;;;;5072025;28;20125;-59
2023/06/15 01:47:05;;;;;;;12.10;6.88;;;12.70;1.00;;;;;;5072020;28;20025;-59
2023/06/15 01:49:31;;;;;;;9.35;6.38;;;12.70;1.00;;;;;;5071987;28;20013;-59
2023/06/15 01:51:56;;;;;;;10.00;6.75;;;12.70;1.00;;;;;;5071804;28;20047;-58
2023/06/15 01:54:22;;;;;;;10.20;6.75;;;12.70;1.00;;;;;;5071715;28;20087;-59
2023/06/15 01:56:48;;;;;;;7.25;6.55;;;12.70;1.00;;;;;;5071582;28;20041;-58
2023/06/15 01:59:13;;;;;;;7.90;6.65;;;12.60;1.00;;;;;;5071266;28;20020;-59
2023/06/15 02:01:39;;;;;;;15.60;8.45;;;12.60;1.00;;;;;;5071815;28;20708;-59
2023/06/15 02:04:05;;;;;;;16.00;7.70;;;12.50;1.00;;;;;;5071737;28;20024;-58
2023/06/15 02:06:30;;;;;;;17.58;7.68;;;12.50;1.00;;;;;;5071719;28;20028;-59
2023/06/15 02:08:56;;;;;;;9.63;6.15;;;12.50;1.00;;;;;;5071597;28;20103;-59
2023/06/15 02:11:22;;;;;;;8.43;6.90;;;12.40;1.00;;;;;;5071492;28;20031;-59
2023/06/15 02:13:48;;;;;;;13.20;6.28;;;12.40;1.00;;;;;;5070519;28;20028;-59
2023/06/15 02:16:15;;;;;;;7.13;6.15;;;12.30;1.00;;;;;;5071703;28;20381;-59
2023/06/15 02:18:44;;;;;;;8.18;6.85;;;12.30;1.00;;;;;;5071540;28;20026;-59
2023/06/15 02:21:10;;;;;;;10.25;7.07;;;12.00;1.00;;;;;;5071273;28;20021;-59
2023/06/15 02:23:35;;;;;;;8.10;6.75;;;12.00;1.00;;;;;;5071671;28;20017;-59
2023/06/15 02:26:01;;;;;;;14.20;8.65;;;11.90;1.00;;;;;;5071487;28;20028;-58
2023/06/15 02:28:27;;;;;;;10.88;7.43;;;11.80;1.00;;;;;;5071649;28;20021;-59
2023/06/15 02:30:53;;;;;;;10.50;7.57;;;11.70;1.00;;;;;;5071725;28;20039;-59
2023/06/15 02:33:19;;;;;;;11.82;6.97;;;11.70;1.00;;;;;;5071348;28;20627;-58
2023/06/15 02:35:44;;;;;;;7.35;6.57;;;11.60;1.00;;;;;;5071427;28;20631;-59
2023/06/15 02:38:10;;;;;;;11.50;7.53;;;11.60;1.00;;;;;;5071333;28;20074;-59
2023/06/15 02:40:36;;;;;;;9.55;7.45;;;11.60;1.00;;;;;;5071391;28;20028;-59
2023/06/15 02:43:02;;;;;;;9.82;7.25;;;11.50;1.00;;;;;;5071166;28;20078;-59
2023/06/15 02:45:27;;;;;;;9.32;7.22;;;11.50;11.20;;;;;;5071475;28;20032;-59
2023/06/15 02:47:53;;;;;;;10.07;7.93;;;11.40;14.20;;;;;;5071460;28;20115;-58
2023/06/15 02:50:19;;;;;;;11.85;8.50;;;11.50;11.80;;;;;;5071030;28;20037;-59
2023/06/15 02:52:45;;;;;;;13.05;8.00;;;11.50;18.40;;;;;;5071271;28;20355;-59
2023/06/15 02:55:13;;;;;;;15.48;7.53;;;11.40;18.80;;;;;;5070050;28;20029;-59
2023/06/15 02:57:38;;;;;;;8.05;7.15;;;11.40;17.30;;;;;;5071063;28;20120;-59
2023/06/15 03:00:05;;;;;;;14.80;7.57;;;11.50;21.30;;;;;;5071035;28;20120;-59
2023/06/15 03:02:31;;;;;;;15.43;8.30;;;11.50;19.00;;;;;;5071248;28;20100;-58
2023/06/15 03:04:56;;;;;;;9.43;8.43;;;11.40;20.20;;;;;;5071232;28;20100;-59
2023/06/15 03:07:22;;;;;;;9.80;7.78;;;11.40;22.30;;;;;;5070976;28;20021;-58
2023/06/15 03:09:51;;;;;;;8.30;7.47;;;11.50;20.10;;;;;;5073620;28;20029;-59
2023/06/15 03:12:18;;;;;;;9.95;8.07;;;11.40;20.40;;;;;;5074794;28;20460;-59
2023/06/15 03:14:44;;;;;;;9.00;8.05;;;11.50;18.20;;;;;;5074858;28;20032;-59
2023/06/15 03:17:12;;;;;;;9.07;7.68;;;11.40;24.60;;;;;;5074828;28;20047;-59
2023/06/15 03:19:43;;;;;;;9.68;7.82;;;11.40;25.10;;;;;;5074712;28;20024;-58
2023/06/15 03:22:09;;;;;;;9.20;7.97;;;11.50;19.00;;;;;;5074509;28;20021;-59
2023/06/15 03:24:36;;;;;;;10.57;8.18;;;11.40;15.00;;;;;;5073386;28;20414;-59
2023/06/15 03:27:03;;;;;;;12.48;7.60;;;11.40;15.50;;;;;;5074737;28;20551;-59
2023/06/15 03:29:29;;;;;;;9.82;8.52;;;11.30;17.80;;;;;;5074596;28;20024;-59
2023/06/15 03:31:56;;;;;;;9.43;8.45;;;11.20;27.30;;;;;;5074455;28;20056;-59
2023/06/15 03:34:22;;;;;;;8.30;7.47;;;11.20;30.20;;;;;;5074488;28;20407;-59
2023/06/15 03:36:51;;;;;;;9.82;8.40;;;11.20;30.40;;;;;;5074599;28;20025;-59
2023/06/15 03:39:18;;;;;;;7.70;6.95;;;11.30;28.90;;;;;;5074246;28;20547;-59
2023/06/15 03:41:44;;;;;;;14.05;8.10;;;11.40;24.10;;;;;;5074304;28;20559;-59
2023/06/15 03:44:09;;;;;;;10.82;8.00;;;11.40;20.90;;;;;;5074155;28;20029;-59
2023/06/15 03:46:35;;;;;;;15.73;8.75;;;11.40;22.50;;;;;;5074342;28;20033;-59
2023/06/15 03:49:01;;;;;;;10.23;7.50;;;11.50;21.10;;;;;;5074155;28;20396;-59
2023/06/15 03:51:27;;;;;;;15.80;8.65;;;11.50;21.60;;;;;;5074183;28;20487;-59
2023/06/15 03:53:52;;;;;;;11.27;9.02;;;11.60;17.60;;;;;;5074210;28;20027;-59
2023/06/15 03:56:18;;;;;;;16.42;8.50;;;11.60;19.50;;;;;;5073949;28;20025;-59
2023/06/15 03:58:44;;;;;;;9.82;8.48;;;11.50;15.80;;;;;;5073970;28;20076;-59
2023/06/15 04:01:12;;;;;;;16.13;8.65;;;11.60;22.40;;;;;;5073833;28;20054;-60
2023/06/15 04:03:38;;;;;;;9.65;8.52;;;11.50;25.10;;;;;;5073748;28;20078;-60
2023/06/15 04:06:05;;;;;;;11.82;8.77;;;11.50;23.50;;;;;;5073797;28;20032;-60
2023/06/15 04:08:37;;;;;;;12.52;9.38;;;11.50;27.20;;;;;;5073900;28;20016;-60
2023/06/15 04:11:03;;;;;;;13.07;8.80;;;11.50;28.50;;;;;;5073567;28;20026;-60
2023/06/15 04:13:29;;;;;;;13.60;8.82;;;11.70;28.50;;;;;;5073902;28;20039;-60
2023/06/15 04:15:55;;;;;;;14.77;8.55;;;11.80;23.80;;;;;;5073633;28;20020;-60
2023/06/15 04:18:22;;;;;;;8.55;7.72;;;11.90;26.10;;;;;;5073452;28;20036;-59
2023/06/15 04:20:48;;;;;;;8.88;8.02;;;12.00;24.20;;;;;;5072755;28;20028;-60
2023/06/15 04:23:14;;;;;;;15.98;8.48;;;12.10;18.30;;;;;;5073535;28;20025;-60
2023/06/15 04:25:40;;;;;;;11.75;9.38;;;12.30;8.90;;;;;;5072449;28;20460;-60
2023/06/15 04:28:10;;;;;;;11.15;8.50;;;12.40;9.00;;;;;;5073288;28;20005;-60
2023/06/15 04:30:40;;;;;;;12.32;8.85;;;12.40;1.00;;;;;;5073501;28;20040;-60
2023/06/15 04:33:12;;;;;;;13.07;9.00;;;12.50;1.00;;;;;;5073036;28;20039;-60
2023/06/15 04:35:40;;;;;;;12.98;8.73;;;12.60;1.00;;;;;;5073447;28;20028;-60
2023/06/15 04:38:06;;;;;;;10.95;8.80;;;12.70;1.00;;;;;;5073188;28;20017;-58
2023/06/15 04:40:31;;;;;;;14.50;9.80;;;12.80;1.00;;;;;;5073143;28;20356;-58
2023/06/15 04:43:02;;;;;;;11.13;8.30;;;12.90;1.00;;;;;;5071860;28;20028;-58
2023/06/15 04:45:29;;;;;;;14.07;9.82;;;12.90;1.00;;;;;;5072403;28;20019;-60
2023/06/15 04:47:54;;;;;;;10.27;9.15;;;13.00;1.00;;;;;;5072065;28;20638;-60
2023/06/15 04:50:21;;;;;;;13.15;8.20;;;13.10;1.00;;;;;;5072262;28;20154;-59
2023/06/15 04:52:48;;;;;;;8.48;7.57;;;13.20;1.00;;;;;;5072652;28;20009;-57
2023/06/15 04:55:14;;;;;;;9.77;8.13;;;13.30;1.00;;;;;;5071978;28;20021;-59
2023/06/15 04:57:39;;;;;;;11.98;7.82;;;13.50;1.00;;;;;;5071884;28;20051;-58
2023/06/15 05:00:10;;;;;;;18.45;9.48;;;13.70;1.00;;;;;;5072443;28;20071;-58
2023/06/15 05:02:36;;;;;;;11.52;9.77;;;13.60;1.00;;;;;;5072772;28;20391;-59
2023/06/15 05:05:02;;;;;;;14.88;8.63;;;13.60;1.00;;;;;;5072552;28;20030;-58
2023/06/15 05:07:28;;;;;;;15.48;8.10;;;13.60;1.00;;;;;;5072878;28;20024;-59
2023/06/15 05:09:54;;;;;;;14.02;9.65;;;13.60;1.00;;;;;;5072506;28;20039;-58
2023/06/15 05:12:20;;;;;;;11.32;7.80;;;13.70;1.00;;;;;;5072513;28;20020;-59
2023/06/15 05:14:46;;;;;;;10.50;7.35;;;13.70;1.00;;;;;;5072518;28;20103;-59
2023/06/15 05:17:12;;;;;;;10.35;7.72;;;14.10;1.00;;;;;;5072270;28;20052;-58
2023/06/15 05:19:38;;;;;;;10.77;9.60;;;14.30;1.00;;;;;;5072499;28;20070;-58
2023/06/15 05:22:05;;;;;;;8.43;7.53;;;14.60;1.00;;;;;;5072255;28;20104;-58
2023/06/15 05:24:31;;;;;;;13.52;7.43;;;14.80;1.00;;;;;;5072148;28;20020;-58
2023/06/15 05:26:57;;;;;;;8.20;7.40;;;14.80;1.00;;;;;;5072279;28;20118;-58
2023/06/15 05:29:23;;;;;;;9.73;7.53;;;15.00;1.00;;;;;;5072284;28;20088;-58
2023/06/15 05:31:49;;;;;;;10.55;7.25;;;15.20;1.00;;;;;;5072134;28;20460;-58
2023/06/15 05:34:15;;;;;;;8.90;6.90;;;15.50;99.90;;;;;;5071966;28;20070;-58
2023/06/15 05:36:41;;;;;;;11.95;7.53;;;15.70;99.90;;;;;;5072277;28;20047;-56
2023/06/15 05:39:07;;;;;;;15.38;7.25;;;16.00;67.10;;;;;;5072086;28;20052;-58
2023/06/15 05:41:33;;;;;;;11.48;7.07;;;16.10;1.00;;;;;;5072017;28;20412;-58
2023/06/15 05:44:02;;;;;;;9.45;6.53;;;16.30;1.00;;;;;;5071851;28;20017;-58
2023/06/15 05:46:27;;;;;;;8.82;6.18;;;16.40;14.80;;;;;;5071948;28;20024;-58
2023/06/15 05:48:53;;;;;;;9.57;6.50;;;16.50;99.90;;;;;;5071838;28;20363;-58
2023/06/15 05:51:19;;;;;;;12.82;6.53;;;16.60;99.90;;;;;;5071762;28;20063;-58
2023/06/15 05:53:44;;;;;;;20.73;7.47;;;16.70;1.00;;;;;;5071797;28;20024;-58
2023/06/15 05:56:10;;;;;;;7.70;6.30;;;16.70;99.90;;;;;;5071733;28;20538;-58
2023/06/15 05:58:37;;;;;;;11.07;6.57;;;16.70;99.90;;;;;;5070316;28;20468;-58
2023/06/15 06:01:05;;;;;;;10.82;6.28;;;16.80;99.90;;;;;;5070232;28;20044;-58
2023/06/15 06:03:31;;;;;;;12.18;6.28;;;17.00;1.00;;;;;;5071891;28;20024;-58
2023/06/15 06:05:56;;;;;;;10.30;6.28;;;17.10;1.00;;;;;;5072152;28;20367;-58
2023/06/15 06:08:23;;;;;;;10.40;6.55;;;17.10;99.90;;;;;;5071551;28;20020;-58
2023/06/15 06:10:49;;;;;;;13.80;6.60;;;17.00;1.00;;;;;;5071949;28;20021;-58
2023/06/15 06:13:15;;;;;;;8.60;6.05;;;17.00;1.00;;;;;;5071588;28;20024;-59
2023/06/15 06:15:41;;;;;;;9.45;6.95;;;17.00;1.00;;;;;;5070236;28;20051;-58
2023/06/15 06:18:06;;;;;;;6.78;6.15;;;16.90;1.00;;;;;;5071485;28;20059;-58
2023/06/15 06:20:32;;;;;;;12.63;7.10;;;16.90;1.00;;;;;;5071599;28;20020;-58
2023/06/15 06:22:58;;;;;;;8.20;6.30;;;17.00;1.00;;;;;;5071596;28;20522;-58
2023/06/15 06:25:23;;;;;;;11.57;6.90;;;17.10;99.90;;;;;;5071465;28;20025;-58
2023/06/15 06:27:49;;;;;;;13.05;6.15;;;17.20;99.90;;;;;;5071625;28;20023;-59
2023/06/15 06:30:15;;;;;;;14.60;6.57;;;17.20;99.90;;;;;;5071312;28;20024;-58
2023/06/15 06:32:41;;;;;;;11.77;6.88;;;17.40;99.90;;;;;;5071481;28;20036;-58
2023/06/15 06:35:07;;;;;;;13.05;5.65;;;17.30;1.00;;;;;;5071375;28;20134;-59
2023/06/15 06:37:32;;;;;;;7.97;5.68;;;17.50;1.00;;;;;;5071301;28;20049;-58
2023/06/15 06:39:59;;;;;;;8.57;6.13;;;17.50;93.40;;;;;;5071395;28;20033;-58
2023/06/15 06:42:25;;;;;;;6.85;6.15;;;17.50;1.00;;;;;;5071324;28;20028;-58
2023/06/15 06:44:51;;;;;;;15.07;6.88;;;17.70;99.90;;;;;;5074066;28;20036;-58
2023/06/15 06:47:17;;;;;;;8.82;7.10;;;17.70;99.90;;;;;;5075304;28;20063;-58
2023/06/15 06:49:42;;;;;;;7.70;6.95;;;17.90;99.90;;;;;;5075409;28;20133;-58
2023/06/15 06:52:08;;;;;;;10.40;6.60;;;17.90;1.00;;;;;;5074984;28;20028;-59
2023/06/15 06:54:34;;;;;;;11.00;7.00;;;17.90;1.00;;;;;;5075301;28;20021;-58
2023/06/15 06:57:00;;;;;;;10.15;6.60;;;17.90;1.00;;;;;;5075015;28;20047;-58
2023/06/15 06:59:26;;;;;;;8.13;6.90;;;17.80;1.00;;;;;;5075124;28;20065;-58
2023/06/15 07:01:51;;;;;;;7.70;6.32;;;17.80;99.90;;;;;;5075145;28;20596;-57
2023/06/15 07:04:17;;;;;;;10.93;6.90;;;18.00;1.00;;;;;;5075000;28;20017;-58
2023/06/15 07:06:43;;;;;;;9.18;6.95;;;18.00;99.90;;;;;;5074988;28;20048;-58
2023/06/15 07:09:08;;;;;;;8.10;5.97;;;18.30;1.00;;;;;;5074794;28;20035;-58
2023/06/15 07:11:34;;;;;;;7.50;6.25;;;18.50;99.90;;;;;;5074802;28;20028;-58
2023/06/15 07:14:03;;;;;;;12.63;6.43;;;18.70;80.00;;;;;;5074752;28;20064;-59
2023/06/15 07:16:29;;;;;;;7.75;5.88;;;19.00;99.90;;;;;;5074802;28;20475;-59
2023/06/15 07:18:55;;;;;;;10.48;6.40;;;19.10;1.00;;;;;;5074687;28;20046;-59
2023/06/15 07:21:21;;;;;;;12.48;6.00;;;19.30;1.00;;;;;;5074436;28;20762;-59
2023/06/15 07:23:47;;;;;;;7.45;6.03;;;19.00;99.90;;;;;;5074697;28;20108;-58
2023/06/15 07:26:13;;;;;;;6.05;5.13;;;19.20;82.50;;;;;;5074411;28;20078;-59
2023/06/15 07:28:38;;;;;;;6.75;5.95;;;19.40;99.90;;;;;;5074560;28;20025;-59
2023/06/15 07:31:04;;;;;;;12.35;5.90;;;19.50;99.90;;;;;;5073086;28;20021;-59
2023/06/15 07:33:30;;;;;;;5.93;4.88;;;19.40;1.00;;;;;;5074581;28;20059;-59
2023/06/15 07:35:55;;;;;;;9.60;5.57;;;19.40;1.00;;;;;;5074454;28;20040;-59
2023/06/15 07:38:21;;;;;;;40.20;14.38;;;19.50;1.00;;;;;;5074349;28;20028;-59
2023/06/15 07:40:47;;;;;;;14.07;6.82;;;19.60;1.00;;;;;;5074381;28;20039;-58
2023/06/15 07:43:12;;;;;;;18.52;5.78;;;19.70;1.00;;;;;;5074156;28;20058;-59
2023/06/15 07:45:38;;;;;;;6.75;5.35;;;19.70;99.90;;;;;;5074402;28;20028;-59
2023/06/15 07:48:04;;;;;;;7.95;4.18;;;19.80;99.90;;;;;;5073912;28;20047;-59
2023/06/15 07:50:30;;;;;;;7.63;5.45;;;19.70;99.90;;;;;;5074266;28;20082;-59
2023/06/15 07:52:56;;;;;;;8.88;5.65;;;19.70;99.90;;;;;;5072817;28;20456;-59
2023/06/15 07:55:22;;;;;;;6.32;5.03;;;20.00;99.90;;;;;;5072743;28;20510;-59
2023/06/15 07:57:47;;;;;;;5.35;4.78;;;20.00;99.90;;;;;;5073857;28;20048;-59
2023/06/15 08:00:13;;;;;;;7.10;4.93;;;20.20;99.90;;;;;;5073998;28;20032;-58
2023/06/15 08:02:39;;;;;;;7.97;4.65;;;20.60;99.90;;;;;;5074132;28;20056;-59
2023/06/15 08:05:05;;;;;;;9.25;5.22;;;20.70;99.90;;;;;;5073823;28;20048;-59
2023/06/15 08:07:31;;;;;;;17.50;5.47;;;20.60;99.90;;;;;;5074035;28;20654;-59
2023/06/15 08:09:57;;;;;;;14.13;9.90;;;20.70;69.40;;;;;;5072506;28;20115;-59
2023/06/15 08:12:22;;;;;;;8.40;5.63;;;20.70;25.50;;;;;;5073760;28;20032;-59
2023/06/15 08:14:48;;;;;;;7.53;5.00;;;20.80;27.20;;;;;;5073799;28;20371;-59
2023/06/15 08:17:13;;;;;;;7.72;5.35;;;21.10;31.40;;;;;;5073633;28;20838;-58
2023/06/15 08:19:39;;;;;;;8.40;4.93;;;21.30;3.50;;;;;;5073641;28;20032;-59
2023/06/15 08:22:05;;;;;;;10.55;4.80;;;21.50;1.00;;;;;;5073591;28;20047;-58
2023/06/15 08:24:31;;;;;;;9.70;4.45;;;21.50;1.00;;;;;;5073677;28;20012;-58
2023/06/15 08:26:57;;;;;;;9.32;5.28;;;21.60;1.00;;;;;;5072180;28;20021;-58
2023/06/15 08:29:22;;;;;;;11.02;4.95;;;21.50;1.00;;;;;;5073418;28;20024;-58
2023/06/15 08:31:48;;;;;;;9.68;4.95;;;21.30;1.00;;;;;;5073546;28;20025;-58
2023/06/15 08:34:14;;;;;;;5.22;4.72;;;21.50;1.00;;;;;;5073211;28;20029;-58
2023/06/15 08:36:40;;;;;;;8.10;4.93;;;21.70;1.00;;;;;;5073428;28;20024;-58
2023/06/15 08:39:05;;;;;;;8.02;4.50;;;21.60;1.00;;;;;;5072008;28;20021;-58
2023/06/15 08:41:32;;;;;;;5.82;4.10;;;21.80;1.00;;;;;;5073310;28;20021;-58
2023/06/15 08:43:59;;;;;;;9.88;4.97;;;21.70;1.00;;;;;;5073229;28;20415;-58
2023/06/15 08:46:25;;;;;;;6.70;4.03;;;21.90;1.00;;;;;;5073108;28;20021;-58
2023/06/15 08:48:52;;;;;;;15.23;4.93;;;22.10;1.00;;;;;;5073101;28;20075;-58
2023/06/15 08:51:21;;;;;;;4.65;4.05;;;22.20;1.00;;;;;;5072988;28;20017;-58
2023/06/15 08:53:48;;;;;;;7.35;4.35;;;22.20;1.00;;;;;;5072907;28;20021;-58
2023/06/15 08:56:14;;;;;;;7.25;4.28;;;22.20;1.00;;;;;;5072776;28;20099;-58
2023/06/15 08:58:40;;;;;;;8.60;4.13;;;22.00;1.00;;;;;;5072856;28;20044;-58
2023/06/15 09:01:07;;;;;;;6.43;4.40;;;22.00;1.00;;;;;;5072645;28;20434;-58
2023/06/15 09:03:37;;;;;;;7.93;3.70;;;22.20;1.00;;;;;;5072864;28;20024;-58
2023/06/15 09:06:03;;;;;;;6.25;4.32;;;22.40;1.00;;;;;;5072501;28;20017;-59
2023/06/15 09:08:28;;;;;;;10.35;3.80;;;22.40;1.00;;;;;;5071192;28;20063;-58
2023/06/15 09:11:08;;;;;;;8.38;4.38;;;22.40;1.00;;;;;;5072731;28;20052;-59
2023/06/15 09:13:34;;;;;;;8.52;4.90;;;22.50;1.00;;;;;;5071648;28;20033;-58
2023/06/15 09:16:01;;;;;;;18.55;4.18;;;22.70;99.90;;;;;;5072585;28;20391;-58
2023/06/15 09:18:27;;;;;;;7.43;3.72;;;22.90;99.90;;;;;;5072155;28;20028;-58
2023/06/15 09:21:00;;;;;;;10.40;4.20;;;23.00;99.90;;;;;;5072351;28;20069;-58
2023/06/15 09:23:26;;;;;;;12.68;4.55;;;23.10;99.90;;;;;;5071904;28;20109;-59
2023/06/15 09:25:53;;;;;;;9.80;4.45;;;23.20;99.90;;;;;;5071918;28;20126;-58
2023/06/15 09:28:24;;;;;;;5.50;4.03;;;23.30;99.90;;;;;;5072147;28;20468;-58
2023/06/15 09:30:59;;;;;;;11.68;4.60;;;23.20;99.90;;;;;;5072172;28;20043;-58
2023/06/15 09:33:26;;;;;;;7.13;4.10;;;23.30;99.90;;;;;;5072164;28;20036;-58
2023/06/15 09:36:02;;;;;;;7.28;4.47;;;23.30;99.90;;;;;;5072163;28;20104;-58
2023/06/15 09:38:44;;;;;;;9.93;4.40;;;23.40;99.90;;;;;;5072167;28;20382;-58
2023/06/15 09:41:10;;;;;;;5.25;4.25;;;23.40;99.90;;;;;;5071885;28;20051;-58
2023/06/15 09:43:41;;;;;;;5.95;3.58;;;23.70;99.90;;;;;;5072005;28;20028;-58
2023/06/15 09:46:13;;;;;;;9.75;4.25;;;23.90;99.90;;;;;;5072048;28;20031;-57
2023/06/15 09:48:40;;;;;;;6.80;4.60;;;24.30;99.90;;;;;;5072179;28;20089;-57
2023/06/15 09:51:06;;;;;;;8.15;4.22;;;24.20;99.90;;;;;;5071895;28;20028;-63
2023/06/15 09:53:32;;;;;;;10.80;4.80;;;24.40;99.90;;;;;;5071824;28;20025;-56
2023/06/15 09:56:00;;;;;;;6.80;3.92;;;24.30;99.90;;;;;;5072014;28;20422;-57
2023/06/15 09:58:26;;;;;;;5.00;3.80;;;24.40;99.90;;;;;;5071524;28;20582;-57
2023/06/15 10:00:57;;;;;;;8.65;4.05;;;24.30;99.90;;;;;;5071726;28;20093;-57
2023/06/15 10:03:24;;;;;;;8.18;4.65;;;24.40;99.90;;;;;;5071639;28;20020;-58
2023/06/15 10:06:08;;;;;;;6.50;4.03;;;24.40;99.90;;;;;;5071643;28;20120;-56
2023/06/15 10:08:38;;;;;;;12.00;4.30;;;24.70;99.90;;;;;;5071788;28;20600;-57
2023/06/15 10:11:04;;;;;;;10.00;4.20;;;24.70;99.90;;;;;;5071311;28;20033;-57
2023/06/15 10:13:39;;;;;;;6.88;4.30;;;24.90;99.90;;;;;;5071282;28;20494;-57
2023/06/15 10:16:07;;;;;;;8.63;4.05;;;25.40;99.90;;;;;;5070643;28;20032;-57
2023/06/15 10:18:33;;;;;;;10.25;3.30;;;25.20;99.90;;;;;;5070134;28;20168;-57
2023/06/15 10:21:02;;;;;;;8.05;4.13;;;25.60;99.90;;;;;;5069883;28;20024;-58
2023/06/15 10:23:31;;;;;;;5.78;3.15;;;25.50;99.90;;;;;;5069655;28;20045;-56
2023/06/15 10:25:59;;;;;;;6.28;3.67;;;26.20;99.90;;;;;;5071250;28;20028;-57
2023/06/15 10:28:27;;;;;;;5.28;3.58;;;26.40;99.90;;;;;;5070493;28;20540;-57
2023/06/15 10:31:09;;;;;;;12.05;3.95;;;26.80;99.90;;;;;;5070605;28;20518;-57
2023/06/15 10:34:04;;;;;;;9.80;3.53;;;26.20;99.90;;;;;;5071186;28;20068;-56
2023/06/15 10:36:36;;;;;;;9.80;3.60;;;26.00;99.90;;;;;;5071239;28;20453;-55
2023/06/15 10:39:17;;;;;;;8.40;3.20;;;26.70;99.90;;;;;;5071267;28;20107;-58
2023/06/15 10:41:45;;;;;;;12.25;3.15;;;26.30;99.90;;;;;;5070070;28;20497;-57
2023/06/15 10:44:17;;;;;;;5.65;3.33;;;26.40;99.90;;;;;;5071307;28;20392;-56
2023/06/15 10:46:43;;;;;;;8.97;3.70;;;27.00;99.90;;;;;;5069987;28;20021;-56
2023/06/15 10:49:11;;;;;;;3.97;2.85;;;26.80;99.90;;;;;;5071248;28;20255;-57
2023/06/15 10:51:50;;;;;;;7.60;3.47;;;26.10;99.90;;;;;;5071195;28;20029;-57
2023/06/15 10:54:25;;;;;;;7.22;3.28;;;26.50;99.90;;;;;;5071200;28;20438;-57
2023/06/15 10:56:53;;;;;;;7.60;2.85;;;26.20;99.90;;;;;;5071324;28;20443;-57
2023/06/15 10:59:58;;;;;;;6.18;3.38;;;25.70;99.90;;;;;;5071206;28;20551;-57
2023/06/15 11:02:32;;;;;;;9.90;3.88;;;25.80;99.90;;;;;;5068263;28;20119;-57
2023/06/15 11:05:02;;;;;;;4.78;2.92;;;25.70;99.90;;;;;;5068651;28;20379;-57
2023/06/15 11:07:33;;;;;;;13.73;2.65;;;25.80;99.90;;;;;;5070044;28;20040;-57
2023/06/15 11:10:09;;;;;;;6.03;3.17;;;25.30;99.90;;;;;;5071126;28;20463;-57
2023/06/15 11:12:37;;;;;;;3.50;3.20;;;26.00;99.90;;;;;;5071176;28;20032;-58
2023/06/15 11:15:05;;;;;;;6.70;3.72;;;26.50;99.90;;;;;;5070931;28;20056;-57
2023/06/15 11:17:51;;;;;;;8.10;3.03;;;26.50;99.90;;;;;;5070899;28;20017;-56
2023/06/15 11:20:38;;;;;;;4.78;3.65;;;26.70;99.90;;;;;;5070580;28;20074;-58
2023/06/15 11:23:13;;;;;;;7.53;2.92;;;26.40;99.90;;;;;;5070848;28;20020;-55
2023/06/15 11:25:43;;;;;;;7.78;2.50;;;26.80;99.90;;;;;;5071032;28;20013;-57
2023/06/15 11:28:09;;;;;;;7.68;2.63;;;27.20;99.90;;;;;;5070746;28;20024;-57
2023/06/15 11:30:37;;;;;;;4.75;2.92;;;27.50;99.90;;;;;;5073033;28;20078;-57
2023/06/15 11:33:03;;;;;;;5.22;2.50;;;27.40;99.90;;;;;;5074523;28;20483;-56
2023/06/15 11:35:30;;;;;;;4.88;2.25;;;27.10;99.90;;;;;;5074532;28;20060;-58
2023/06/15 11:37:57;;;;;;;3.47;2.50;;;27.30;99.90;;;;;;5074502;28;20013;-57
2023/06/15 11:40:23;;;;;;;5.20;2.92;;;28.00;99.90;;;;;;5074267;28;20032;-57
2023/06/15 11:42:50;;;;;;;7.18;2.53;;;28.30;99.90;;;;;;5074483;28;20028;-57
2023/06/15 11:45:19;;;;;;;6.30;2.88;;;27.90;99.90;;;;;;5074131;28;20369;-58
2023/06/15 11:47:48;;;;;;;7.65;2.97;;;27.90;99.90;;;;;;5074255;28;20024;-57
2023/06/15 11:50:17;;;;;;;6.30;2.28;;;27.20;99.90;;;;;;5074276;28;20562;-57
2023/06/15 11:52:44;;;;;;;4.68;2.28;;;27.00;99.90;;;;;;5074181;28;20024;-57
2023/06/15 11:55:11;;;;;;;3.47;2.58;;;27.00;99.90;;;;;;5074080;28;20027;-57
2023/06/15 11:57:38;;;;;;;10.40;2.70;;;27.00;99.90;;;;;;5072648;28;20051;-58
2023/06/15 12:00:07;;;;;;;3.72;2.38;;;27.70;99.90;;;;;;5073846;28;20028;-58
2023/06/15 12:02:34;;;;;;;4.40;2.50;;;28.20;99.90;;;;;;5072775;28;20016;-58
2023/06/15 12:05:00;;;;;;;2.60;2.40;;;27.80;99.90;;;;;;5074040;28;20158;-58
2023/06/15 12:07:27;;;;;;;2.80;1.92;;;27.80;99.90;;;;;;5073979;28;20103;-58
2023/06/15 12:09:54;;;;;;;4.15;2.05;;;28.20;99.90;;;;;;5074014;28;20047;-58
2023/06/15 12:12:39;;;;;;;2.95;2.40;;;28.10;99.90;;;;;;5073969;28;20671;-56
2023/06/15 12:15:06;;;;;;;3.38;2.78;;;27.60;99.90;;;;;;5073612;28;20032;-56
2023/06/15 12:17:34;;;;;;;26.05;3.80;;;27.70;99.90;;;;;;5073824;28;20033;-58
2023/06/15 12:20:00;;;;;;;3.13;2.15;;;27.60;99.90;;;;;;5073782;28;20530;-57
2023/06/15 12:22:34;;;;;;;9.27;2.45;;;28.00;99.90;;;;;;5073693;28;20024;-57
2023/06/15 12:25:00;;;;;;;5.97;2.20;;;28.30;99.90;;;;;;5073728;28;20395;-56
2023/06/15 12:27:26;;;;;;;7.10;2.25;;;28.50;99.90;;;;;;5073520;28;20025;-58
2023/06/15 12:30:10;;;;;;;6.45;2.25;;;28.60;99.90;;;;;;5073614;28;20452;-58
2023/06/15 12:32:44;;;;;;;2.17;1.90;;;29.00;99.90;;;;;;5073598;28;20051;-58
2023/06/15 12:35:31;;;;;;;4.82;2.72;;;28.70;99.90;;;;;;5073373;28;20035;-58
2023/06/15 12:37:57;;;;;;;7.47;2.30;;;28.50;99.90;;;;;;5073346;28;20107;-58
2023/06/15 12:40:23;;;;;;;5.07;2.90;;;27.80;99.90;;;;;;5073251;28;20170;-58
2023/06/15 12:43:03;;;;;;;4.30;2.63;;;28.60;99.90;;;;;;5072650;28;20016;-58
2023/06/15 12:45:29;;;;;;;5.10;2.67;;;29.20;99.90;;;;;;5073275;28;20090;-57
2023/06/15 12:47:56;;;;;;;3.72;2.55;;;30.20;99.90;;;;;;5073138;28;20460;-58
2023/06/15 12:50:22;;;;;;;3.90;1.80;;;31.30;99.90;;;;;;5072928;28;20111;-58